Flight Track Log - Related Links

Times and Time Zones

All times are in EDT time to prevent confusion due to time zone crossing. See the N53361 flight status page for this flight to view local times or setup timezone preferences in your user account.

Time Position Orientation Groundspeed Altitude Reporting Facility
EDT Latitude Longitude Course Direction KTS MPH feet Rate Location/Type
Sat 09:41:29 AM 34.0833 -84.5833 49° Northeast 95 109 3,000  Level Atlanta TRACON
Sat 09:42:29 AM 34.1167 -84.5667 22° Northeast 102 117 3,400 450 Climbing Atlanta TRACON
Sat 09:43:29 AM 34.1333 -84.5667 360° North 99 114 3,900 450 Climbing Atlanta TRACON
Sat 09:44:29 AM 34.1500 -84.5500 40° Northeast 112 129 4,300 420 Climbing Atlanta TRACON
Sat 09:45:52 AM 34.1919 -84.5261 25° Northeast 109 125 4,900 420 Climbing Atlanta Center
Sat 09:46:00 AM 34.1077 -84.4259 49° Northeast  Level FlightAware
Sat 09:46:52 AM 34.2169 -84.5111 26° Northeast 102 117 5,300  Level Atlanta Center
Sat 09:47:52 AM 34.2422 -84.4936 30° Northeast 97 112 5,700 350 Climbing Atlanta Center
Sat 09:48:52 AM 34.2672 -84.4786 26° Northeast 97 112 6,000 150 Climbing Atlanta Center
Sat 09:49:52 AM 34.2925 -84.4586 33° Northeast 102 117 6,000 -50 Level Atlanta Center
Sat 09:50:52 AM 34.3194 -84.4411 28° Northeast 102 117 5,900 -50 Descending Atlanta Center
Sat 09:51:52 AM 34.3467 -84.4211 31° Northeast 102 117 5,900  Level Atlanta Center
Sat 09:52:52 AM 34.3739 -84.4036 28° Northeast 102 117 5,900  Level Atlanta Center
Sat 09:53:52 AM 34.4011 -84.3886 24° Northeast 102 117 5,900  Level Atlanta Center
Sat 09:54:52 AM 34.4303 -84.3764 19° North 107 123 5,900  Level Atlanta Center
Sat 09:55:52 AM 34.4514 -84.3561 38° Northeast 112 129 5,900  Level Atlanta Center
Sat 09:56:52 AM 34.4764 -84.3336 37° Northeast 112 129 5,900 -50 Level Atlanta Center
Sat 09:57:52 AM 34.5056 -84.3211 19° North 107 123 5,800 -100 Descending Atlanta Center
Sat 09:58:52 AM 34.5097 -84.3361 289° West 56 64 5,700 -250 Descending Atlanta Center
Sat 09:59:52 AM 34.4931 -84.3589 228° Southwest 56 64 5,300 -400 Descending Atlanta Center
Sat 10:00:52 AM 34.4889 -84.3942 262° West 86 99 4,900 -400 Descending Atlanta Center
Sat 10:01:52 AM 34.4992 -84.4219 294° West 91 105 4,500 -350 Descending Atlanta Center
Sat 10:02:52 AM 34.5072 -84.4572 285° West 99 114 4,200 -350 Descending Atlanta Center
Sat 10:03:52 AM 34.5136 -84.4825 287° West 94 108 3,800 -300 Descending Atlanta Center
Sat 10:04:52 AM 34.5300 -84.5103 306° West 94 108 3,600 -100 Descending Atlanta Center
Sat 10:05:52 AM 34.5447 -84.5356 305° West 94 108 3,600 -50 Level Atlanta Center
Sat 10:06:52 AM 34.5569 -84.5633 298° West 99 114 3,500 -50 Descending Atlanta Center
Sat 10:07:52 AM 34.5672 -84.5939 292° West 94 108 3,500 -50 Level Atlanta Center
Sat 10:08:52 AM 34.5756 -84.6242 288° West 94 108 3,400 -50 Descending Atlanta Center
Sat 10:09:52 AM 34.5794 -84.6519 280° West 89 102 3,400  Level Atlanta Center
Sat 10:10:52 AM 34.5900 -84.6772 297° West 84 97 3,400 50 Level Atlanta Center
Sat 10:11:52 AM 34.6044 -84.7050 302° West 89 102 3,500  Climbing Atlanta Center
Sat 10:12:52 AM 34.6208 -84.7228 318° Northwest 94 108 3,400 -50 Descending Atlanta Center
Sat 10:13:52 AM 34.6353 -84.7533 300° West 105 121 3,400  Level Atlanta Center
Sat 10:14:52 AM 34.6478 -84.7786 301° West 100 115 3,400  Level Atlanta Center
Sat 10:15:52 AM 34.6683 -84.8064 312° West 100 115 3,400 50 Level Atlanta Center
Sat 10:16:52 AM 34.6850 -84.8294 311° West 94 108 3,500 50 Climbing Atlanta Center
Sat 10:17:52 AM 34.7036 -84.8550 312° West 94 108 3,500 -50 Level Atlanta Center
Sat 10:18:52 AM 34.7075 -84.8828 280° West 94 108 3,400 -100 Descending Atlanta Center

Login

Don't have an account? Register now (free) for customized features, flight alerts, and more!